createdAt,value
2018-03-27T00:00:33.853Z,5.44
2018-03-27T00:01:33.922Z,5.43
2018-03-27T00:02:34.009Z,5.44
2018-03-27T00:03:34.053Z,5.43
2018-03-27T00:04:34.101Z,5.48
2018-03-27T00:05:34.165Z,5.50
2018-03-27T00:06:34.293Z,5.43
2018-03-27T00:07:34.575Z,5.51
2018-03-27T00:08:34.349Z,5.39
2018-03-27T00:09:34.409Z,5.43
2018-03-27T00:10:34.473Z,5.39
2018-03-27T00:11:34.530Z,5.33
2018-03-27T00:12:34.606Z,5.41
2018-03-27T00:13:34.669Z,5.41
2018-03-27T00:14:34.717Z,5.36
2018-03-27T00:15:34.774Z,5.32
2018-03-27T00:16:34.837Z,5.35
2018-03-27T00:17:35.058Z,5.35
2018-03-27T00:18:35.126Z,5.21
2018-03-27T00:19:35.049Z,5.23
2018-03-27T00:20:35.082Z,5.25
2018-03-27T00:21:35.189Z,5.20
2018-03-27T00:22:35.239Z,5.11
2018-03-27T00:23:35.270Z,5.20
2018-03-27T00:24:35.326Z,5.21
2018-03-27T00:25:35.398Z,5.18
2018-03-27T00:26:35.446Z,5.15
2018-03-27T00:27:35.514Z,5.14
2018-03-27T00:28:35.576Z,5.12
2018-03-27T00:29:35.630Z,5.14
2018-03-27T00:30:35.738Z,5.18
2018-03-27T00:31:35.754Z,5.15
2018-03-27T00:32:35.902Z,5.17
2018-03-27T00:33:35.886Z,5.21
2018-03-27T00:34:35.935Z,5.23
2018-03-27T00:35:35.998Z,5.15
2018-03-27T00:36:36.090Z,5.14
2018-03-27T00:37:36.119Z,5.10
2018-03-27T00:38:36.355Z,5.04
2018-03-27T00:39:36.242Z,5.11
2018-03-27T00:40:36.322Z,5.07
2018-03-27T00:41:36.362Z,4.99
2018-03-27T00:42:36.427Z,4.99
2018-03-27T00:43:36.491Z,4.97
2018-03-27T00:44:36.550Z,4.94
2018-03-27T00:45:36.606Z,4.87
2018-03-27T00:46:36.672Z,4.84
2018-03-27T00:47:36.736Z,4.89
2018-03-27T00:48:36.794Z,4.77
2018-03-27T00:49:36.856Z,4.71
2018-03-27T00:50:36.911Z,4.68
2018-03-27T00:51:36.971Z,4.62
2018-03-27T00:52:37.035Z,4.56
2018-03-27T00:53:37.391Z,4.48
2018-03-27T00:54:37.155Z,4.55
2018-03-27T00:55:37.222Z,4.42
2018-03-27T00:56:37.283Z,4.45
2018-03-27T00:57:37.555Z,4.41
2018-03-27T00:58:37.408Z,4.26
2018-03-27T00:59:37.467Z,4.34
2018-03-27T01:00:37.831Z,4.30
2018-03-27T01:01:37.584Z,4.19
2018-03-27T01:02:37.648Z,4.19
2018-03-27T01:03:37.712Z,4.14
2018-03-27T01:04:37.772Z,4.06
2018-03-27T01:05:37.824Z,4.08
2018-03-27T01:06:37.939Z,3.98
2018-03-27T01:07:37.948Z,3.96
2018-03-27T01:08:38.016Z,4.01
2018-03-27T01:09:38.076Z,3.96
2018-03-27T01:10:38.304Z,3.83
2018-03-27T01:11:38.196Z,3.87
2018-03-27T01:12:38.252Z,3.80
2018-03-27T01:13:38.508Z,3.78
2018-03-27T01:14:38.372Z,3.74
2018-03-27T01:15:38.432Z,3.66
2018-03-27T01:16:38.548Z,3.73
2018-03-27T01:17:38.560Z,3.66
2018-03-27T01:18:38.620Z,3.66
2018-03-27T01:19:38.692Z,3.59
2018-03-27T01:20:38.742Z,3.63
2018-03-27T01:21:38.796Z,3.50
2018-03-27T01:22:38.856Z,3.58
2018-03-27T01:23:38.932Z,3.51
2018-03-27T01:24:38.989Z,3.56
2018-03-27T01:25:39.045Z,3.55
2018-03-27T01:26:39.100Z,3.44
2018-03-27T01:27:39.169Z,3.48
2018-03-27T01:28:39.760Z,3.48
2018-03-27T01:29:39.281Z,3.37
2018-03-27T01:30:39.344Z,3.41
2018-03-27T01:31:39.513Z,3.31
2018-03-27T01:32:39.465Z,3.31
2018-03-27T01:33:39.533Z,3.25
2018-03-27T01:34:40.013Z,3.25
2018-03-27T01:35:39.648Z,3.21
2018-03-27T01:36:39.706Z,3.13
2018-03-27T01:37:39.845Z,3.13
2018-03-27T01:38:39.825Z,3.07
2018-03-27T01:39:39.897Z,3.08
2018-03-27T01:40:40.162Z,3.03
2018-03-27T01:41:40.014Z,3.01
2018-03-27T01:42:40.073Z,3.07
2018-03-27T01:43:40.133Z,2.97
2018-03-27T01:44:40.189Z,2.93
2018-03-27T01:45:40.277Z,2.97
2018-03-27T01:46:40.441Z,2.93
2018-03-27T01:47:40.373Z,2.97
2018-03-27T01:48:40.431Z,2.93
2018-03-27T01:49:40.490Z,2.95
2018-03-27T01:50:40.557Z,2.92
2018-03-27T01:51:40.622Z,2.93
2018-03-27T01:52:40.673Z,2.90
2018-03-27T01:53:40.919Z,2.89
2018-03-27T01:54:40.793Z,2.83
2018-03-27T01:55:40.938Z,2.79
2018-03-27T01:56:40.922Z,2.79
2018-03-27T01:57:40.974Z,2.72
2018-03-27T01:58:41.034Z,2.68
2018-03-27T01:59:41.194Z,2.74
2018-03-27T02:00:41.173Z,2.69
2018-03-27T02:01:41.214Z,2.69
2018-03-27T02:02:41.278Z,2.67
2018-03-27T02:03:41.342Z,2.67
2018-03-27T02:04:41.487Z,2.51
2018-03-27T02:05:41.466Z,2.51
2018-03-27T02:06:41.530Z,2.51
2018-03-27T02:07:41.574Z,2.53
2018-03-27T02:08:41.634Z,2.46
2018-03-27T02:09:41.698Z,2.46
2018-03-27T02:10:41.766Z,2.50
2018-03-27T02:11:41.966Z,2.38
2018-03-27T02:12:41.946Z,2.35
2018-03-27T02:13:41.942Z,2.31
2018-03-27T02:14:42.002Z,2.29
2018-03-27T02:15:42.063Z,2.35
2018-03-27T02:16:42.163Z,2.33
2018-03-27T02:17:42.183Z,2.32
2018-03-27T02:18:42.254Z,2.39
2018-03-27T02:19:42.323Z,2.28
2018-03-27T02:20:42.661Z,2.38
2018-03-27T02:21:42.423Z,2.43
2018-03-27T02:22:42.494Z,2.18
2018-03-27T02:23:42.542Z,2.33
2018-03-27T02:24:42.603Z,2.14
2018-03-27T02:25:42.670Z,2.17
2018-03-27T02:26:42.727Z,2.20
2018-03-27T02:27:42.797Z,2.20
2018-03-27T02:28:42.849Z,2.18
2018-03-27T02:29:42.899Z,2.15
2018-03-27T02:30:42.976Z,2.17
2018-03-27T02:31:43.023Z,2.18
2018-03-27T02:32:43.183Z,2.18
2018-03-27T02:33:43.168Z,2.08
2018-03-27T02:34:43.196Z,2.15
2018-03-27T02:35:43.564Z,2.22
2018-03-27T02:36:43.315Z,2.24
2018-03-27T02:37:43.377Z,2.13
2018-03-27T02:38:43.436Z,2.00
2018-03-27T02:39:43.556Z,2.11
2018-03-27T02:40:43.559Z,2.08
2018-03-27T02:41:43.767Z,2.02
2018-03-27T02:42:43.716Z,2.14
2018-03-27T02:43:43.736Z,2.02
2018-03-27T02:44:43.853Z,2.02
2018-03-27T02:45:43.860Z,2.06
2018-03-27T02:46:43.925Z,2.06
2018-03-27T02:47:43.986Z,2.10
2018-03-27T02:48:44.044Z,2.06
2018-03-27T02:49:44.100Z,2.11
2018-03-27T02:50:44.152Z,2.06
2018-03-27T02:51:44.213Z,2.06
2018-03-27T02:52:44.392Z,1.99
2018-03-27T02:53:44.333Z,2.06
2018-03-27T02:54:44.392Z,2.08
2018-03-27T02:55:44.454Z,2.04
2018-03-27T02:56:44.512Z,2.04
2018-03-27T02:57:44.579Z,2.02
2018-03-27T02:58:44.636Z,1.99
2018-03-27T02:59:44.692Z,1.95
2018-03-27T03:00:44.756Z,1.85
2018-03-27T03:01:44.812Z,1.89
2018-03-27T03:02:44.875Z,1.84
2018-03-27T03:03:44.941Z,1.87
2018-03-27T03:04:44.993Z,2.04
2018-03-27T03:05:45.051Z,1.95
2018-03-27T03:06:45.108Z,2.18
2018-03-27T03:07:45.285Z,2.24
2018-03-27T03:08:45.228Z,2.14
2018-03-27T03:09:45.385Z,2.20
2018-03-27T03:10:45.349Z,2.15
2018-03-27T03:11:45.404Z,2.02
2018-03-27T03:12:45.472Z,2.07
2018-03-27T03:13:45.589Z,2.02
2018-03-27T03:14:45.584Z,1.97
2018-03-27T03:15:45.649Z,1.89
2018-03-27T03:16:45.705Z,1.91
2018-03-27T03:17:45.827Z,1.92
2018-03-27T03:18:45.833Z,1.94
2018-03-27T03:19:45.885Z,1.88
2018-03-27T03:20:45.945Z,1.89
2018-03-27T03:21:46.001Z,1.92
2018-03-27T03:22:46.141Z,1.92
2018-03-27T03:23:46.129Z,1.89
2018-03-27T03:24:46.185Z,1.87
2018-03-27T03:25:46.241Z,1.89
2018-03-27T03:26:46.369Z,1.91
2018-03-27T03:27:46.386Z,1.97
2018-03-27T03:28:46.661Z,1.91
2018-03-27T03:29:46.485Z,1.87
2018-03-27T03:30:46.538Z,1.92
2018-03-27T03:31:46.590Z,1.85
2018-03-27T03:32:46.669Z,1.81
2018-03-27T03:33:46.726Z,1.94
2018-03-27T03:34:46.774Z,1.89
2018-03-27T03:35:46.846Z,1.94
2018-03-27T03:36:46.897Z,1.89
2018-03-27T03:37:47.162Z,1.92
2018-03-27T03:38:47.022Z,1.84
2018-03-27T03:39:47.082Z,1.88
2018-03-27T03:40:47.134Z,1.88
2018-03-27T03:41:47.190Z,1.80
2018-03-27T03:42:47.270Z,1.88
2018-03-27T03:43:47.309Z,1.80
2018-03-27T03:44:47.373Z,1.87
2018-03-27T03:45:47.430Z,1.88
2018-03-27T03:46:47.490Z,1.85
2018-03-27T03:47:47.558Z,1.85
2018-03-27T03:48:47.615Z,1.80
2018-03-27T03:49:47.734Z,1.84
2018-03-27T03:50:47.730Z,1.84
2018-03-27T03:51:47.790Z,1.92
2018-03-27T03:52:47.859Z,1.92
2018-03-27T03:53:47.914Z,1.89
2018-03-27T03:54:47.966Z,1.87
2018-03-27T03:55:48.038Z,1.87
2018-03-27T03:56:48.098Z,1.88
2018-03-27T03:57:48.162Z,1.87
2018-03-27T03:58:48.202Z,1.76
2018-03-27T03:59:48.271Z,1.77
2018-03-27T04:00:49.042Z,1.88
2018-03-27T04:01:48.418Z,1.76
2018-03-27T04:02:48.482Z,1.71
2018-03-27T04:03:48.522Z,1.74
2018-03-27T04:04:48.559Z,1.74
2018-03-27T04:05:48.619Z,1.70
2018-03-27T04:06:48.686Z,1.58
2018-03-27T04:07:48.755Z,1.56
2018-03-27T04:08:48.903Z,1.63
2018-03-27T04:09:48.854Z,1.67
2018-03-27T04:10:49.067Z,1.63
2018-03-27T04:11:48.998Z,1.59
2018-03-27T04:12:49.054Z,1.53
2018-03-27T04:13:49.098Z,1.68
2018-03-27T04:14:49.151Z,1.70
2018-03-27T04:15:49.235Z,1.70
2018-03-27T04:16:49.275Z,1.60
2018-03-27T04:17:49.375Z,1.62
2018-03-27T04:18:49.399Z,1.63
2018-03-27T04:19:49.472Z,1.55
2018-03-27T04:20:49.510Z,1.55
2018-03-27T04:21:49.576Z,1.56
2018-03-27T04:22:49.675Z,1.44
2018-03-27T04:23:49.700Z,1.49
2018-03-27T04:24:49.756Z,1.40
2018-03-27T04:25:49.815Z,1.40
2018-03-27T04:26:49.879Z,1.44
2018-03-27T04:27:49.972Z,1.35
2018-03-27T04:28:50.000Z,1.38
2018-03-27T04:29:50.247Z,1.30
2018-03-27T04:30:50.108Z,1.32
2018-03-27T04:31:50.169Z,1.32
2018-03-27T04:32:50.219Z,1.23
2018-03-27T04:33:50.458Z,1.22
2018-03-27T04:34:50.352Z,1.22
2018-03-27T04:35:50.408Z,1.23
2018-03-27T04:36:50.468Z,1.17
2018-03-27T04:37:50.518Z,1.20
2018-03-27T04:38:50.613Z,1.19
2018-03-27T04:39:50.644Z,1.24
2018-03-27T04:40:50.700Z,1.17
2018-03-27T04:41:50.756Z,1.14
2018-03-27T04:42:50.811Z,1.08
2018-03-27T04:43:50.880Z,1.12
2018-03-27T04:44:50.940Z,1.13
2018-03-27T04:45:50.988Z,1.12
2018-03-27T04:46:51.057Z,1.05
2018-03-27T04:47:51.116Z,1.06
2018-03-27T04:48:51.322Z,0.99
2018-03-27T04:49:51.228Z,1.01
2018-03-27T04:50:51.297Z,1.05
2018-03-27T04:51:51.348Z,1.05
2018-03-27T04:52:51.476Z,1.12
2018-03-27T04:53:51.468Z,1.06
2018-03-27T04:54:51.534Z,1.02
2018-03-27T04:55:51.588Z,1.02
2018-03-27T04:56:51.716Z,0.99
2018-03-27T04:57:51.713Z,0.99
2018-03-27T04:58:51.767Z,1.04
2018-03-27T04:59:51.985Z,1.01
2018-03-27T05:00:51.881Z,0.98
2018-03-27T05:01:51.940Z,0.91
2018-03-27T05:02:52.002Z,0.88
2018-03-27T05:03:52.061Z,0.88
2018-03-27T05:04:52.123Z,0.91
2018-03-27T05:05:52.184Z,0.91
2018-03-27T05:06:52.236Z,0.87
2018-03-27T05:07:52.304Z,0.91
2018-03-27T05:08:52.361Z,0.99
2018-03-27T05:09:52.469Z,0.94
2018-03-27T05:10:52.469Z,1.02
2018-03-27T05:11:52.533Z,1.10
2018-03-27T05:12:52.681Z,1.05
2018-03-27T05:13:52.661Z,1.04
2018-03-27T05:14:52.717Z,1.05
2018-03-27T05:15:52.770Z,1.14
2018-03-27T05:16:52.821Z,1.12
2018-03-27T05:17:53.009Z,1.06
2018-03-27T05:18:52.945Z,1.14
2018-03-27T05:19:53.006Z,1.14
2018-03-27T05:20:53.158Z,1.12
2018-03-27T05:21:53.125Z,1.19
2018-03-27T05:22:53.178Z,1.17
2018-03-27T05:23:53.254Z,1.26
2018-03-27T05:24:53.417Z,1.17
2018-03-27T05:25:53.357Z,1.23
2018-03-27T05:26:53.453Z,1.26
2018-03-27T05:27:53.468Z,1.22
2018-03-27T05:28:53.537Z,1.17
2018-03-27T05:29:53.694Z,1.23
2018-03-27T05:30:53.651Z,1.17
2018-03-27T05:31:53.750Z,1.23
2018-03-27T05:32:53.829Z,1.22
2018-03-27T05:33:53.922Z,1.41
2018-03-27T05:34:53.894Z,1.49
2018-03-27T05:35:54.006Z,1.48
2018-03-27T05:36:54.058Z,1.58
2018-03-27T05:37:54.066Z,1.67
2018-03-27T05:38:54.143Z,1.70
2018-03-27T05:39:54.178Z,1.77
2018-03-27T05:40:54.234Z,1.77
2018-03-27T05:41:54.362Z,1.80
2018-03-27T05:42:54.378Z,1.80
2018-03-27T05:43:54.435Z,1.81
2018-03-27T05:44:54.486Z,1.88
2018-03-27T05:45:54.534Z,1.92
2018-03-27T05:46:54.941Z,1.88
2018-03-27T05:47:54.654Z,1.88
2018-03-27T05:48:54.735Z,1.92
2018-03-27T05:49:57.631Z,1.91
2018-03-27T05:50:55.725Z,2.02
2018-03-27T05:51:54.886Z,2.02
2018-03-27T05:52:56.622Z,2.02
2018-03-27T05:53:55.468Z,2.04
2018-03-27T05:54:55.086Z,2.02
2018-03-27T05:55:56.102Z,2.08
2018-03-27T05:56:55.191Z,2.02
2018-03-27T05:57:55.319Z,2.25
2018-03-27T05:58:55.335Z,2.17
2018-03-27T05:59:55.476Z,2.20
2018-03-27T06:00:55.474Z,2.33
2018-03-27T06:01:56.067Z,2.38
2018-03-27T06:02:55.563Z,2.29
2018-03-27T06:03:55.695Z,2.33
2018-03-27T06:04:55.748Z,2.38
2018-03-27T06:05:55.739Z,2.49
2018-03-27T06:06:57.003Z,2.51
2018-03-27T06:07:56.064Z,2.43
2018-03-27T06:08:56.016Z,2.49
2018-03-27T06:09:56.168Z,2.47
2018-03-27T06:10:56.031Z,2.57
2018-03-27T06:11:56.388Z,2.60
2018-03-27T06:12:56.213Z,2.61
2018-03-27T06:13:56.183Z,2.68
2018-03-27T06:14:56.671Z,2.67
2018-03-27T06:15:56.360Z,2.68
2018-03-27T06:16:56.471Z,2.74
2018-03-27T06:17:56.420Z,2.75
2018-03-27T06:18:56.483Z,2.83
2018-03-27T06:19:56.596Z,2.77
2018-03-27T06:20:56.928Z,2.90
2018-03-27T06:21:57.367Z,2.93
2018-03-27T06:22:56.744Z,3.01
2018-03-27T06:23:56.837Z,3.04
2018-03-27T06:24:56.937Z,3.07
2018-03-27T06:25:57.964Z,3.08
2018-03-27T06:26:56.976Z,3.13
2018-03-27T06:27:57.308Z,3.10
2018-03-27T06:28:57.184Z,3.16
2018-03-27T06:29:57.446Z,3.13
2018-03-27T06:30:57.485Z,3.19
2018-03-27T06:31:57.296Z,3.25
2018-03-27T06:32:57.348Z,3.32
2018-03-27T06:33:57.380Z,3.29
2018-03-27T06:34:57.524Z,3.25
2018-03-27T06:35:57.657Z,3.41
2018-03-27T06:36:57.589Z,3.44
2018-03-27T06:37:57.608Z,3.48
2018-03-27T06:38:57.681Z,3.48
2018-03-27T06:39:58.485Z,3.56
2018-03-27T06:40:57.853Z,3.55
2018-03-27T06:41:58.248Z,3.63
2018-03-27T06:42:58.021Z,3.65
2018-03-27T06:43:58.001Z,3.70
2018-03-27T06:44:58.117Z,3.77
2018-03-27T06:45:58.272Z,3.76
2018-03-27T06:46:58.210Z,3.80
2018-03-27T06:47:58.265Z,3.83
2018-03-27T06:48:58.369Z,3.83
2018-03-27T06:49:58.333Z,3.96
2018-03-27T06:50:58.393Z,3.96
2018-03-27T06:51:58.477Z,3.94
2018-03-27T06:52:58.561Z,4.02
2018-03-27T06:53:58.645Z,4.02
2018-03-27T06:54:58.762Z,4.05
2018-03-27T06:55:58.709Z,4.16
2018-03-27T06:56:58.821Z,4.13
2018-03-27T06:57:58.829Z,4.20
2018-03-27T06:58:58.925Z,4.17
2018-03-27T06:59:58.929Z,4.35
2018-03-27T07:01:00.246Z,4.30
2018-03-27T07:01:59.117Z,4.32
2018-03-27T07:02:59.166Z,4.44
2018-03-27T07:03:59.234Z,4.48
2018-03-27T07:04:59.254Z,4.52
2018-03-27T07:05:59.731Z,4.55
2018-03-27T07:06:59.362Z,4.59
2018-03-27T07:07:59.877Z,4.56
2018-03-27T07:08:59.507Z,4.58
2018-03-27T07:09:59.562Z,4.66
2018-03-27T07:10:59.609Z,4.73
2018-03-27T07:12:00.670Z,4.78
2018-03-27T07:12:59.777Z,4.84
2018-03-27T07:14:00.370Z,4.89
2018-03-27T07:14:59.841Z,4.82
2018-03-27T07:16:00.266Z,4.99
2018-03-27T07:17:00.304Z,4.97
2018-03-27T07:18:00.031Z,5.02
2018-03-27T07:19:00.070Z,5.10
2018-03-27T07:20:00.210Z,5.12
2018-03-27T07:21:00.314Z,5.18
2018-03-27T07:22:00.366Z,5.26
2018-03-27T07:23:00.314Z,5.30
2018-03-27T07:24:00.362Z,5.38
2018-03-27T07:25:00.434Z,5.35
2018-03-27T07:26:00.487Z,5.50
2018-03-27T07:27:00.685Z,5.53
2018-03-27T07:28:00.827Z,5.51
2018-03-27T07:29:00.675Z,5.53
2018-03-27T07:30:01.691Z,5.57
2018-03-27T07:31:00.939Z,5.62
2018-03-27T07:32:01.002Z,5.65
2018-03-27T07:33:01.035Z,5.72
2018-03-27T07:34:01.171Z,5.72
2018-03-27T07:35:01.031Z,5.76
2018-03-27T07:36:01.195Z,5.91
2018-03-27T07:37:01.407Z,6.22
2018-03-27T07:38:01.239Z,6.88
2018-03-27T07:39:01.319Z,7.85
2018-03-27T07:40:01.695Z,8.70
2018-03-27T07:41:01.415Z,9.31
2018-03-27T07:42:01.647Z,9.86
2018-03-27T07:43:01.519Z,10.02
2018-03-27T07:44:01.686Z,10.42
2018-03-27T07:45:01.674Z,10.51
2018-03-27T07:46:01.707Z,11.04
2018-03-27T07:47:01.796Z,11.05
2018-03-27T07:48:06.027Z,11.44
2018-03-27T07:49:01.893Z,11.30
2018-03-27T07:50:01.954Z,11.40
2018-03-27T07:51:02.012Z,11.57
2018-03-27T07:52:02.097Z,11.94
2018-03-27T07:53:02.143Z,11.95
2018-03-27T07:54:02.356Z,12.22
2018-03-27T07:55:02.267Z,12.57
2018-03-27T07:56:02.404Z,13.01
2018-03-27T07:57:02.412Z,13.35
2018-03-27T07:58:02.496Z,13.15
2018-03-27T07:59:02.756Z,13.31
2018-03-27T08:00:02.604Z,13.33
2018-03-27T08:01:02.772Z,13.79
2018-03-27T08:02:02.732Z,14.30
2018-03-27T08:03:02.892Z,13.92
2018-03-27T08:04:02.864Z,13.33
2018-03-27T08:05:02.925Z,12.53
2018-03-27T08:06:03.068Z,12.40
2018-03-27T08:07:03.056Z,11.60
2018-03-27T08:08:03.130Z,11.18
2018-03-27T08:09:03.196Z,10.93
2018-03-27T08:10:03.253Z,10.53
2018-03-27T08:11:03.339Z,10.19
2018-03-27T08:12:03.422Z,10.19
2018-03-27T08:13:03.466Z,10.17
2018-03-27T08:14:03.521Z,10.16
2018-03-27T08:15:03.733Z,10.13
2018-03-27T08:16:03.645Z,10.13
2018-03-27T08:17:03.753Z,10.31
2018-03-27T08:18:03.801Z,10.33
2018-03-27T08:19:03.841Z,10.10
2018-03-27T08:20:04.021Z,9.89
2018-03-27T08:21:03.976Z,9.86
2018-03-27T08:22:04.049Z,9.84
2018-03-27T08:23:04.141Z,9.97
2018-03-27T08:24:04.234Z,9.94
2018-03-27T08:25:04.235Z,10.04
2018-03-27T08:26:04.301Z,10.10
2018-03-27T08:27:04.461Z,10.64
2018-03-27T08:28:04.430Z,10.87
2018-03-27T08:29:04.494Z,10.53
2018-03-27T08:30:04.662Z,10.09
2018-03-27T08:31:04.621Z,10.05
2018-03-27T08:32:04.722Z,9.97
2018-03-27T08:33:04.770Z,9.92
2018-03-27T08:34:04.818Z,9.87
2018-03-27T08:35:04.881Z,9.82
2018-03-27T08:36:04.944Z,9.84
2018-03-27T08:37:05.029Z,9.74
2018-03-27T08:38:05.078Z,9.65
2018-03-27T08:39:05.157Z,9.58
2018-03-27T08:40:05.202Z,9.54
2018-03-27T08:41:05.362Z,9.59
2018-03-27T08:42:05.413Z,9.58
2018-03-27T08:43:05.410Z,9.64
2018-03-27T08:44:05.454Z,9.65
2018-03-27T08:45:05.526Z,9.83
2018-03-27T08:46:05.586Z,9.92
2018-03-27T08:47:05.650Z,9.84
2018-03-27T08:48:05.722Z,9.97
2018-03-27T08:49:05.785Z,10.10
2018-03-27T08:50:05.838Z,10.33
2018-03-27T08:51:06.050Z,10.35
2018-03-27T08:52:05.978Z,10.40
2018-03-27T08:53:06.040Z,10.37
2018-03-27T08:54:06.374Z,10.44
2018-03-27T08:55:06.166Z,10.19
2018-03-27T08:56:06.281Z,10.02
2018-03-27T08:57:06.287Z,10.22
2018-03-27T08:58:06.374Z,9.99
2018-03-27T08:59:06.414Z,10.04
2018-03-27T09:00:06.654Z,10.05
2018-03-27T09:01:06.542Z,10.15
2018-03-27T09:02:06.607Z,10.53
2018-03-27T09:03:06.678Z,10.61
2018-03-27T09:04:06.739Z,10.82
2018-03-27T09:05:06.799Z,11.29
2018-03-27T09:06:06.859Z,11.12
2018-03-27T09:07:06.931Z,11.54
2018-03-27T09:08:06.995Z,11.94
2018-03-27T09:09:07.211Z,11.94
2018-03-27T09:10:07.119Z,12.31
2018-03-27T09:11:07.179Z,12.91
2018-03-27T09:12:07.243Z,13.39
2018-03-27T09:13:07.471Z,13.47
2018-03-27T09:14:07.371Z,13.37
2018-03-27T09:15:07.437Z,12.95
2018-03-27T09:16:07.505Z,12.61
2018-03-27T09:17:07.576Z,12.60
2018-03-27T09:18:07.679Z,12.91
2018-03-27T09:19:07.703Z,12.95
2018-03-27T09:20:07.759Z,13.03
2018-03-27T09:21:08.063Z,12.78
2018-03-27T09:22:07.932Z,12.73
2018-03-27T09:23:07.963Z,12.36
2018-03-27T09:24:08.028Z,12.17
2018-03-27T09:25:08.108Z,11.94
2018-03-27T09:26:08.152Z,11.54
2018-03-27T09:27:08.211Z,11.45
2018-03-27T09:28:08.292Z,11.30
2018-03-27T09:29:08.344Z,11.27
2018-03-27T09:30:08.412Z,11.15
2018-03-27T09:31:08.480Z,10.99
2018-03-27T09:32:08.600Z,10.86
2018-03-27T09:33:08.607Z,10.84
2018-03-27T09:34:08.772Z,10.81
2018-03-27T09:35:08.741Z,10.71
2018-03-27T09:36:08.801Z,10.63
2018-03-27T09:37:08.909Z,10.57
2018-03-27T09:38:08.932Z,10.53
2018-03-27T09:39:09.020Z,10.48
2018-03-27T09:40:09.052Z,10.42
2018-03-27T09:41:09.124Z,10.40
2018-03-27T09:42:09.184Z,10.23
2018-03-27T09:43:09.356Z,10.22
2018-03-27T09:44:09.312Z,10.25
2018-03-27T09:45:09.580Z,10.22
2018-03-27T09:46:09.564Z,10.40
2018-03-27T09:47:09.500Z,10.38
2018-03-27T09:48:09.581Z,10.40
2018-03-27T09:49:09.637Z,10.44
2018-03-27T09:50:09.692Z,10.46
2018-03-27T09:51:09.761Z,10.51
2018-03-27T09:52:09.821Z,10.48
2018-03-27T09:53:09.896Z,10.53
2018-03-27T09:54:09.957Z,10.53
2018-03-27T09:55:10.021Z,10.48
2018-03-27T09:56:11.045Z,10.54
2018-03-27T09:57:10.142Z,10.56
2018-03-27T09:58:10.237Z,10.60
2018-03-27T09:59:10.269Z,10.64
2018-03-27T10:00:10.337Z,10.74
2018-03-27T10:01:10.397Z,10.78
2018-03-27T10:02:10.461Z,10.86
2018-03-27T10:03:10.533Z,11.25
2018-03-27T10:04:10.593Z,11.30
2018-03-27T10:05:10.789Z,11.47
2018-03-27T10:06:10.713Z,11.66
2018-03-27T10:07:10.780Z,11.97
2018-03-27T10:08:10.851Z,12.13
2018-03-27T10:09:11.057Z,12.53
2018-03-27T10:10:10.989Z,12.67
2018-03-27T10:11:11.038Z,12.75
2018-03-27T10:12:11.097Z,13.04
2018-03-27T10:13:11.433Z,13.25
2018-03-27T10:14:11.225Z,13.30
2018-03-27T10:15:11.314Z,13.52
2018-03-27T10:16:11.357Z,13.52
2018-03-27T10:17:11.445Z,13.75
2018-03-27T10:18:11.538Z,13.70
2018-03-27T10:19:11.574Z,13.72
2018-03-27T10:20:11.617Z,13.79
2018-03-27T10:21:11.710Z,13.75
2018-03-27T10:22:11.799Z,13.47
2018-03-27T10:23:11.810Z,13.23
2018-03-27T10:24:11.874Z,13.18
2018-03-27T10:25:11.946Z,13.03
2018-03-27T10:26:12.013Z,12.98
2018-03-27T10:27:12.067Z,13.13
2018-03-27T10:28:12.234Z,13.01
2018-03-27T10:29:12.202Z,12.73
2018-03-27T10:30:12.254Z,12.75
2018-03-27T10:31:12.354Z,12.83
2018-03-27T10:32:12.386Z,12.97
2018-03-27T10:33:12.478Z,12.95
2018-03-27T10:34:12.526Z,12.83
2018-03-27T10:35:12.587Z,12.72
2018-03-27T10:36:12.658Z,12.61
2018-03-27T10:37:12.714Z,12.43
2018-03-27T10:38:12.782Z,12.46
2018-03-27T10:39:12.869Z,12.55
2018-03-27T10:40:12.902Z,12.80
2018-03-27T10:41:12.970Z,12.95
2018-03-27T10:42:13.036Z,13.18
2018-03-27T10:43:13.111Z,13.35
2018-03-27T10:44:13.187Z,13.18
2018-03-27T10:45:13.226Z,13.28
2018-03-27T10:46:13.294Z,13.28
2018-03-27T10:47:13.403Z,13.49
2018-03-27T10:48:13.426Z,13.30
2018-03-27T10:49:13.518Z,13.09
2018-03-27T10:50:13.555Z,12.85
2018-03-27T10:51:13.615Z,12.80
2018-03-27T10:52:13.678Z,12.68
2018-03-27T10:53:13.755Z,12.49
2018-03-27T10:54:13.851Z,12.43
2018-03-27T10:55:13.871Z,12.25
2018-03-27T10:56:13.943Z,12.20
2018-03-27T10:57:14.003Z,12.22
2018-03-27T10:58:14.071Z,12.31
2018-03-27T10:59:14.139Z,12.36
2018-03-27T11:00:14.819Z,12.53
2018-03-27T11:01:14.259Z,12.55
2018-03-27T11:02:14.327Z,12.57
2018-03-27T11:03:14.476Z,12.73
2018-03-27T11:04:14.461Z,12.78
2018-03-27T11:05:14.519Z,12.94
2018-03-27T11:06:14.583Z,13.01
2018-03-27T11:07:14.647Z,12.95
2018-03-27T11:08:14.720Z,13.12
2018-03-27T11:09:14.784Z,13.04
2018-03-27T11:10:14.975Z,12.95
2018-03-27T11:11:14.944Z,13.04
2018-03-27T11:12:14.972Z,12.78
2018-03-27T11:13:15.107Z,12.75
2018-03-27T11:14:15.104Z,12.97
2018-03-27T11:15:15.203Z,13.31
2018-03-27T11:16:15.251Z,13.50
2018-03-27T11:17:15.292Z,13.63
2018-03-27T11:18:15.456Z,13.86
2018-03-27T11:19:15.444Z,13.72
2018-03-27T11:20:15.488Z,13.77
2018-03-27T11:21:15.556Z,13.72
2018-03-27T11:22:15.617Z,13.77
2018-03-27T11:23:15.726Z,13.81
2018-03-27T11:24:15.748Z,13.63
2018-03-27T11:25:15.816Z,13.39
2018-03-27T11:26:15.876Z,13.47
2018-03-27T11:27:15.940Z,13.13
2018-03-27T11:28:16.042Z,12.78
2018-03-27T11:29:16.106Z,12.76
2018-03-27T11:30:16.133Z,12.82
2018-03-27T11:31:16.201Z,12.85
2018-03-27T11:32:16.265Z,12.98
2018-03-27T11:33:16.339Z,13.03
2018-03-27T11:34:16.401Z,13.03
2018-03-27T11:35:16.465Z,13.04
2018-03-27T11:36:16.525Z,13.05
2018-03-27T11:37:16.589Z,13.03
2018-03-27T11:38:16.661Z,12.98
2018-03-27T11:39:16.725Z,13.04
2018-03-27T11:40:16.781Z,13.19
2018-03-27T11:41:16.847Z,13.20
2018-03-27T11:42:16.909Z,13.31
2018-03-27T11:43:16.981Z,13.31
2018-03-27T11:44:17.165Z,13.30
2018-03-27T11:45:17.109Z,13.23
2018-03-27T11:46:17.175Z,13.35
2018-03-27T11:47:17.365Z,13.54
2018-03-27T11:48:17.303Z,13.77
2018-03-27T11:49:17.481Z,13.71
2018-03-27T11:50:17.429Z,13.77
2018-03-27T11:51:17.494Z,13.83
2018-03-27T11:52:17.641Z,13.92
2018-03-27T11:53:17.691Z,13.89
2018-03-27T11:54:17.702Z,13.87
2018-03-27T11:55:17.762Z,13.65
2018-03-27T11:56:17.820Z,13.50
2018-03-27T11:57:17.882Z,13.52
2018-03-27T11:58:17.946Z,13.42
2018-03-27T11:59:18.174Z,13.42
2018-03-27T12:00:18.086Z,13.30
2018-03-27T12:01:18.142Z,13.13
2018-03-27T12:02:18.386Z,13.03
2018-03-27T12:03:18.306Z,12.82
2018-03-27T12:04:18.346Z,12.83
2018-03-27T12:05:18.410Z,12.83
2018-03-27T12:06:18.482Z,12.90
2018-03-27T12:07:18.534Z,12.78
2018-03-27T12:08:18.599Z,12.83
2018-03-27T12:09:18.754Z,13.03
2018-03-27T12:10:18.743Z,13.05
2018-03-27T12:11:18.790Z,13.35
2018-03-27T12:12:18.855Z,13.46
2018-03-27T12:13:18.918Z,13.62
2018-03-27T12:14:19.107Z,13.74
2018-03-27T12:15:19.068Z,13.75
2018-03-27T12:16:19.118Z,13.78
2018-03-27T12:17:19.179Z,13.77
2018-03-27T12:18:19.247Z,13.78
2018-03-27T12:19:19.615Z,13.83
2018-03-27T12:20:19.378Z,13.72
2018-03-27T12:21:19.439Z,13.56
2018-03-27T12:22:19.518Z,13.33
2018-03-27T12:23:19.567Z,13.30
2018-03-27T12:24:19.906Z,13.23
2018-03-27T12:25:19.703Z,13.31
2018-03-27T12:26:19.766Z,13.15
2018-03-27T12:27:19.867Z,13.19
2018-03-27T12:28:19.902Z,13.09
2018-03-27T12:29:19.987Z,13.09
2018-03-27T12:30:20.027Z,13.01
2018-03-27T12:31:20.087Z,12.97
2018-03-27T12:32:20.155Z,12.87
2018-03-27T12:33:20.215Z,12.94
2018-03-27T12:34:20.399Z,12.86
2018-03-27T12:35:20.343Z,12.90
2018-03-27T12:36:20.415Z,13.04
2018-03-27T12:37:20.515Z,13.04
2018-03-27T12:38:20.535Z,13.04
2018-03-27T12:39:20.621Z,13.15
2018-03-27T12:40:20.679Z,13.27
2018-03-27T12:41:20.739Z,13.19
2018-03-27T12:42:20.814Z,13.35
2018-03-27T12:43:21.036Z,13.33
2018-03-27T12:44:20.927Z,13.23
2018-03-27T12:45:21.068Z,13.23
2018-03-27T12:46:21.060Z,13.18
2018-03-27T12:47:21.128Z,13.18
2018-03-27T12:48:21.184Z,13.15
2018-03-27T12:49:21.588Z,13.08
2018-03-27T12:50:21.320Z,13.00
2018-03-27T12:51:21.378Z,13.04
2018-03-27T12:52:21.456Z,13.03
2018-03-27T12:53:21.516Z,12.80
2018-03-27T12:54:21.580Z,12.79
2018-03-27T12:55:21.652Z,12.82
2018-03-27T12:56:21.956Z,12.76
2018-03-27T12:57:21.779Z,12.82
2018-03-27T12:58:21.828Z,12.93
2018-03-27T12:59:21.923Z,12.95
2018-03-27T13:00:21.968Z,13.00
2018-03-27T13:01:22.028Z,13.04
2018-03-27T13:02:22.136Z,13.01
2018-03-27T13:03:22.153Z,12.94
2018-03-27T13:04:22.244Z,12.90
2018-03-27T13:05:22.289Z,12.95
2018-03-27T13:06:22.348Z,12.91
2018-03-27T13:07:22.420Z,13.03
2018-03-27T13:08:22.480Z,13.04
2018-03-27T13:09:22.552Z,13.05